Terminal Aerodrome Forecast
Issued by NWS Shreveport, LA

Home | Current Version | Previous Version | Text Only | Print | Product List | Glossary On
Versions: 1 2 3 4 5 6 7 8 9 10 11 12 13 14 15 16
000
FTUS44 KSHV 182322
TAFMLU
TAF
KMLU 182322Z 1900/1924 VRB04KT P6SM VCSH SCT040 SCT100 BKN250
      TEMPO 1900/1904 3SM -TSRA BR BKN040CB
     FM190400 VRB03KT P6SM FEW040 SCT120 BKN250
     FM191400 20008KT P6SM SCT015 SCT140 SCT250
     FM191600 22010KT P6SM SCT030=

USA.gov is the U.S. government's official web portal to all federal, state and local government web resources and services.